Time;durP1;ratioP1;P1;durP2;ratioP2;P2;SDS_P1;SDS_P2;PMS_P1;PMS_P2;Temp;Humidity;BMP_temperature;BMP_pressure;BME280_temperature;BME280_humidity;BME280_pressure;Samples;Min_cycle;Max_cycle;Signal;HPM_P1;HPM_P2
2023/07/31 00:07:07;;;;;;;4.03;1.33;;;;;;;;;;2361625;23;20932;-94
2023/07/31 00:08:08;;;;;;;2.83;1.20;;;;;;;;;;2040909;29;20027;-93
2023/07/31 00:09:09;;;;;;;2.85;1.27;;;;;;;;;;2032865;29;20456;-94
2023/07/31 00:10:09;;;;;;;1.77;1.20;;;;;;;;;;2025329;29;20508;-94
2023/07/31 00:12:28;;;;;;;3.15;1.08;;;;;;;;;;2169957;23;20050;-94
2023/07/31 00:13:29;;;;;;;2.03;1.30;;;;;;;;;;2032925;29;20024;-94
2023/07/31 00:14:29;;;;;;;3.03;1.33;;;;;;;;;;2032947;29;20191;-93
2023/07/31 00:15:30;;;;;;;2.25;1.35;;;;;;;;;;2032789;29;20027;-93
2023/07/31 00:16:30;;;;;;;1.30;1.10;;;;;;;;;;2032791;29;20066;-94
2023/07/31 00:17:31;;;;;;;3.38;1.52;;;;;;;;;;2032993;29;20539;-95
2023/07/31 00:37:12;;;;;;;4.90;1.40;;;;;;;;;;2347517;23;20253;-93
2023/07/31 00:38:12;;;;;;;1.75;1.33;;;;;;;;;;2041139;29;20024;-94
2023/07/31 00:39:13;;;;;;;2.42;1.48;;;;;;;;;;2032934;29;20064;-93
2023/07/31 00:40:14;;;;;;;2.55;1.42;;;;;;;;;;2025805;29;20556;-94
2023/07/31 00:41:14;;;;;;;2.58;1.48;;;;;;;;;;2033985;29;20126;-94
2023/07/31 00:42:15;;;;;;;2.75;1.50;;;;;;;;;;2027339;29;20039;-93
2023/07/31 00:43:15;;;;;;;2.15;1.15;;;;;;;;;;2026230;29;20028;-93
2023/07/31 00:44:16;;;;;;;1.98;1.20;;;;;;;;;;2037613;29;20079;-94
2023/07/31 00:45:16;;;;;;;3.80;1.60;;;;;;;;;;2039961;29;20020;-92
2023/07/31 00:46:17;;;;;;;2.50;1.52;;;;;;;;;;2031289;29;20100;-93
2023/07/31 00:47:17;;;;;;;2.75;1.38;;;;;;;;;;2041214;29;20039;-94
2023/07/31 00:48:18;;;;;;;2.60;1.35;;;;;;;;;;2034795;29;20051;-92
2023/07/31 00:49:18;;;;;;;5.40;1.85;;;;;;;;;;2030189;29;20422;-94
2023/07/31 00:50:20;;;;;;;2.80;1.20;;;;;;;;;;2025152;29;20400;-93
2023/07/31 01:07:56;;;;;;;3.92;1.48;;;;;;;;;;2031549;29;19924;-93
2023/07/31 01:09:31;;;;;;;4.15;1.52;;;;;;;;;;2032439;29;20052;-93
2023/07/31 01:10:40;;;;;;;2.15;1.20;;;;;;;;;;2032290;29;20044;-93
2023/07/31 01:11:51;;;;;;;3.28;1.70;;;;;;;;;;2032524;29;20444;-94
2023/07/31 01:12:53;;;;;;;2.60;1.30;;;;;;;;;;2032577;29;20028;-95
2023/07/31 01:13:57;;;;;;;3.05;1.30;;;;;;;;;;2032489;29;20036;-94
2023/07/31 01:15:04;;;;;;;1.70;1.23;;;;;;;;;;2025072;29;20055;-94
2023/07/31 02:02:46;;;;;;;3.15;1.73;;;;;;;;;;2202044;23;21408;-93
2023/07/31 02:03:47;;;;;;;3.45;1.75;;;;;;;;;;2025438;29;20024;-93
2023/07/31 02:04:47;;;;;;;4.00;1.42;;;;;;;;;;2016653;29;20127;-95
2023/07/31 02:05:48;;;;;;;1.73;1.27;;;;;;;;;;2016807;29;20481;-95
2023/07/31 02:06:49;;;;;;;2.00;1.20;;;;;;;;;;2016612;29;20148;-94
2023/07/31 02:07:50;;;;;;;4.35;1.58;;;;;;;;;;2016637;29;20076;-94
2023/07/31 02:08:50;;;;;;;1.67;1.40;;;;;;;;;;2024904;29;20052;-95
2023/07/31 02:09:51;;;;;;;2.67;1.55;;;;;;;;;;2009041;29;20044;-95
2023/07/31 02:10:52;;;;;;;3.00;1.60;;;;;;;;;;2008938;29;20552;-95
2023/07/31 02:11:55;;;;;;;6.18;1.60;;;;;;;;;;2009006;29;20112;-94
2023/07/31 02:31:51;;;;;;;5.33;1.80;;;;;;;;;;2078452;23;20055;-94
2023/07/31 02:32:52;;;;;;;1.98;1.40;;;;;;;;;;2032394;29;20359;-94
2023/07/31 02:33:52;;;;;;;2.25;1.60;;;;;;;;;;2032536;29;20115;-95
2023/07/31 02:34:53;;;;;;;3.28;1.55;;;;;;;;;;2032172;29;20158;-94
2023/07/31 02:35:53;;;;;;;2.20;1.50;;;;;;;;;;2032399;29;20040;-94
2023/07/31 02:36:54;;;;;;;3.55;1.80;;;;;;;;;;2039966;29;20420;-95
2023/07/31 02:37:54;;;;;;;3.15;1.67;;;;;;;;;;2032242;29;20043;-94
2023/07/31 02:38:55;;;;;;;2.88;1.70;;;;;;;;;;2023972;29;20056;-94
2023/07/31 02:39:55;;;;;;;4.55;1.60;;;;;;;;;;2032085;29;20043;-94
2023/07/31 02:40:56;;;;;;;2.97;1.55;;;;;;;;;;2031893;29;20039;-93
2023/07/31 02:41:56;;;;;;;3.10;1.50;;;;;;;;;;2024528;29;20033;-93
2023/07/31 02:42:57;;;;;;;1.58;1.20;;;;;;;;;;2032281;29;20078;-94
2023/07/31 02:43:57;;;;;;;2.28;1.50;;;;;;;;;;2024332;29;20036;-94
2023/07/31 02:44:57;;;;;;;1.52;1.40;;;;;;;;;;2024300;29;20051;-94
2023/07/31 02:45:59;;;;;;;2.92;1.60;;;;;;;;;;2032181;29;20051;-94
2023/07/31 02:47:00;;;;;;;3.63;1.50;;;;;;;;;;2031986;29;20476;-94
2023/07/31 02:48:00;;;;;;;2.60;1.30;;;;;;;;;;2024232;29;20122;-94
2023/07/31 02:49:01;;;;;;;3.38;1.50;;;;;;;;;;2032199;29;20040;-94
2023/07/31 02:50:02;;;;;;;2.28;1.67;;;;;;;;;;2024281;29;20493;-94
2023/07/31 02:51:03;;;;;;;3.60;1.75;;;;;;;;;;2025577;29;20025;-94
2023/07/31 02:52:06;;;;;;;2.03;1.30;;;;;;;;;;2025520;29;20068;-93
2023/07/31 02:53:06;;;;;;;3.58;1.42;;;;;;;;;;2025887;29;20067;-92
2023/07/31 02:54:07;;;;;;;2.03;1.42;;;;;;;;;;2025315;29;20084;-95
2023/07/31 02:55:07;;;;;;;1.50;1.30;;;;;;;;;;2025644;29;20051;-94
2023/07/31 02:56:08;;;;;;;6.93;2.78;;;;;;;;;;2033300;29;20572;-95
2023/07/31 02:57:08;;;;;;;3.45;2.13;;;;;;;;;;2033409;29;20556;-93
2023/07/31 02:58:09;;;;;;;7.78;1.77;;;;;;;;;;2041244;29;20472;-93
2023/07/31 02:59:09;;;;;;;2.47;2.00;;;;;;;;;;2041379;29;20491;-94
2023/07/31 03:00:10;;;;;;;4.35;1.70;;;;;;;;;;2041918;29;20513;-94
2023/07/31 03:01:10;;;;;;;3.08;1.50;;;;;;;;;;2033627;29;20028;-94
2023/07/31 03:02:12;;;;;;;3.47;1.83;;;;;;;;;;2025214;29;20123;-93
2023/07/31 03:04:32;;;;;;;3.65;1.52;;;;;;;;;;2323837;23;20072;-93
2023/07/31 03:05:32;;;;;;;2.90;1.83;;;;;;;;;;2033828;29;20075;-93
2023/07/31 03:06:33;;;;;;;3.75;1.75;;;;;;;;;;1677621;29;10298704;-93
2023/07/31 03:07:33;;;;;;;5.50;1.90;;;;;;;;;;2031429;29;20063;-94
2023/07/31 03:08:33;;;;;;;4.05;1.88;;;;;;;;;;2035310;29;20080;-91
2023/07/31 03:09:34;;;;;;;2.35;1.50;;;;;;;;;;2035439;29;20032;-94
2023/07/31 03:16:53;;;;;;;5.10;1.70;;;;;;;;;;2048419;23;20420;-94
2023/07/31 03:17:54;;;;;;;3.60;2.03;;;;;;;;;;2033396;29;20499;-93
2023/07/31 03:18:54;;;;;;;3.92;2.15;;;;;;;;;;2025455;29;20147;-93
2023/07/31 03:19:55;;;;;;;3.08;1.70;;;;;;;;;;2033096;29;20496;-92
2023/07/31 03:20:55;;;;;;;3.10;2.13;;;;;;;;;;2033350;29;20472;-94
2023/07/31 03:21:56;;;;;;;3.95;2.08;;;;;;;;;;2033349;29;20493;-94
2023/07/31 03:22:56;;;;;;;2.30;1.70;;;;;;;;;;2033464;29;20028;-94
2023/07/31 03:23:56;;;;;;;2.80;1.65;;;;;;;;;;2033349;29;20144;-93
2023/07/31 03:24:57;;;;;;;3.70;1.80;;;;;;;;;;2025693;29;20040;-94
2023/07/31 03:26:03;;;;;;;2.83;1.85;;;;;;;;;;2025455;29;20123;-94
2023/07/31 03:27:04;;;;;;;3.47;2.17;;;;;;;;;;2034245;29;20456;-94
2023/07/31 03:28:04;;;;;;;2.20;1.50;;;;;;;;;;2033208;29;20055;-93
2023/07/31 03:29:05;;;;;;;1.65;1.42;;;;;;;;;;2025775;29;20084;-94
2023/07/31 03:30:06;;;;;;;4.13;2.03;;;;;;;;;;2025604;29;20052;-93
2023/07/31 03:31:08;;;;;;;3.58;1.70;;;;;;;;;;2026103;29;20036;-93
2023/07/31 03:32:12;;;;;;;3.08;2.00;;;;;;;;;;2034012;29;20031;-94
2023/07/31 03:33:12;;;;;;;3.05;1.67;;;;;;;;;;2041892;29;20024;-93
2023/07/31 03:34:13;;;;;;;4.72;1.70;;;;;;;;;;2041729;29;20024;-94
2023/07/31 03:35:13;;;;;;;4.28;1.52;;;;;;;;;;2033527;29;20016;-94
2023/07/31 03:36:14;;;;;;;3.55;1.88;;;;;;;;;;2033028;29;20020;-93
2023/07/31 03:37:14;;;;;;;2.28;2.08;;;;;;;;;;2033318;29;20028;-93
2023/07/31 03:38:14;;;;;;;3.47;1.80;;;;;;;;;;2033195;29;20024;-93
2023/07/31 03:39:15;;;;;;;2.90;1.90;;;;;;;;;;2025099;29;20191;-93
2023/07/31 03:40:15;;;;;;;3.55;1.83;;;;;;;;;;2033220;29;20068;-93
2023/07/31 03:41:16;;;;;;;4.15;1.90;;;;;;;;;;2033339;29;20043;-92
2023/07/31 03:42:16;;;;;;;2.70;2.05;;;;;;;;;;2025710;29;20024;-92
2023/07/31 03:43:17;;;;;;;3.15;1.95;;;;;;;;;;2025332;29;20068;-91
2023/07/31 03:44:17;;;;;;;4.32;2.10;;;;;;;;;;2025176;29;20510;-92
2023/07/31 03:45:18;;;;;;;3.30;2.13;;;;;;;;;;2025136;29;20020;-92
2023/07/31 03:46:18;;;;;;;3.97;2.00;;;;;;;;;;2033318;29;20369;-93
2023/07/31 03:47:18;;;;;;;3.13;1.77;;;;;;;;;;2033202;29;20513;-93
2023/07/31 03:48:19;;;;;;;2.10;1.80;;;;;;;;;;2033271;29;20020;-94
2023/07/31 03:49:19;;;;;;;3.83;1.73;;;;;;;;;;2032963;29;20032;-93
2023/07/31 03:50:20;;;;;;;2.40;1.70;;;;;;;;;;2033206;29;20440;-96
2023/07/31 03:51:20;;;;;;;3.40;1.95;;;;;;;;;;2040758;29;20059;-94
2023/07/31 03:52:21;;;;;;;3.47;1.92;;;;;;;;;;2033026;29;20023;-94
2023/07/31 03:53:21;;;;;;;1.95;1.75;;;;;;;;;;2025220;29;20374;-95
2023/07/31 03:54:22;;;;;;;3.38;1.83;;;;;;;;;;2040908;29;20031;-94
2023/07/31 03:55:22;;;;;;;3.58;2.00;;;;;;;;;;2043324;29;20008;-95
2023/07/31 03:56:23;;;;;;;5.07;2.10;;;;;;;;;;2035213;29;20004;-94
2023/07/31 03:57:23;;;;;;;3.17;1.75;;;;;;;;;;2035309;29;20012;-94
2023/07/31 03:58:24;;;;;;;3.15;2.00;;;;;;;;;;2043233;29;20068;-94
2023/07/31 03:59:24;;;;;;;3.88;1.85;;;;;;;;;;2041323;29;20754;-94
2023/07/31 04:00:25;;;;;;;2.97;1.90;;;;;;;;;;2033461;29;20134;-95
2023/07/31 04:01:26;;;;;;;4.78;1.85;;;;;;;;;;2042356;29;20041;-94
2023/07/31 04:02:26;;;;;;;3.15;1.75;;;;;;;;;;2040457;29;20028;-93
2023/07/31 04:03:27;;;;;;;4.43;2.08;;;;;;;;;;2041314;29;20020;-95
2023/07/31 04:04:27;;;;;;;3.58;1.92;;;;;;;;;;2041826;29;20027;-95
2023/07/31 04:05:30;;;;;;;2.97;1.75;;;;;;;;;;2041983;29;20523;-95
2023/07/31 04:06:30;;;;;;;3.15;1.88;;;;;;;;;;2041765;29;20531;-94
2023/07/31 04:07:31;;;;;;;4.70;1.77;;;;;;;;;;2033931;29;20063;-95
2023/07/31 04:08:31;;;;;;;3.88;1.73;;;;;;;;;;2025325;29;20115;-94
2023/07/31 04:09:32;;;;;;;2.72;1.70;;;;;;;;;;2033408;29;20036;-94
2023/07/31 04:10:33;;;;;;;3.10;1.92;;;;;;;;;;2034118;29;20126;-95
2023/07/31 04:11:33;;;;;;;3.47;1.88;;;;;;;;;;2033634;29;20016;-94
2023/07/31 04:12:35;;;;;;;2.78;1.70;;;;;;;;;;2033730;29;20045;-94
2023/07/31 04:13:36;;;;;;;3.30;2.03;;;;;;;;;;2043340;29;20036;-93
2023/07/31 04:14:37;;;;;;;3.47;1.70;;;;;;;;;;2043032;29;20028;-94
2023/07/31 04:15:37;;;;;;;2.45;1.70;;;;;;;;;;2032913;29;20163;-94
2023/07/31 04:16:37;;;;;;;4.75;1.85;;;;;;;;;;2042032;29;20052;-95
2023/07/31 04:17:38;;;;;;;2.83;1.85;;;;;;;;;;2033814;29;20031;-94
2023/07/31 04:18:38;;;;;;;3.95;1.70;;;;;;;;;;2033863;29;20107;-95
2023/07/31 04:19:39;;;;;;;2.88;1.70;;;;;;;;;;2042246;29;20028;-94
2023/07/31 04:20:39;;;;;;;5.13;1.98;;;;;;;;;;2041358;29;20535;-94
2023/07/31 04:21:40;;;;;;;2.05;1.60;;;;;;;;;;2032960;29;20024;-94
2023/07/31 04:22:40;;;;;;;4.93;2.00;;;;;;;;;;2040868;29;20162;-93
2023/07/31 04:23:41;;;;;;;2.75;1.88;;;;;;;;;;2040689;29;20456;-94
2023/07/31 04:24:41;;;;;;;4.68;1.70;;;;;;;;;;2032892;29;20485;-94
2023/07/31 04:25:42;;;;;;;2.22;1.95;;;;;;;;;;2040890;29;20472;-93
2023/07/31 04:26:42;;;;;;;5.10;2.88;;;;;;;;;;2040687;29;20058;-94
2023/07/31 04:27:43;;;;;;;4.80;2.42;;;;;;;;;;2040773;29;20045;-94
2023/07/31 04:28:44;;;;;;;5.63;2.20;;;;;;;;;;2040984;29;20027;-94
2023/07/31 04:29:46;;;;;;;5.68;3.00;;;;;;;;;;2040825;29;20504;-94
2023/07/31 04:30:50;;;;;;;3.33;1.80;;;;;;;;;;2040685;29;20046;-94
2023/07/31 04:36:28;;;;;;;4.35;2.55;;;;;;;;;;2024946;29;20505;-94
2023/07/31 04:37:29;;;;;;;4.85;3.30;;;;;;;;;;2016711;29;20107;-93
2023/07/31 04:38:44;;;;;;;6.85;2.50;;;;;;;;;;1112559;29;10021361;-94
2023/07/31 04:39:44;;;;;;;5.18;2.25;;;;;;;;;;2041242;29;20237;-93
2023/07/31 04:40:45;;;;;;;5.72;2.45;;;;;;;;;;2044776;29;20571;-93
2023/07/31 04:41:45;;;;;;;29.42;16.92;;;;;;;;;;2049412;29;20035;-92
2023/07/31 04:42:46;;;;;;;9.98;5.28;;;;;;;;;;2044476;29;20543;-93
2023/07/31 04:43:46;;;;;;;5.13;3.13;;;;;;;;;;2041284;29;20024;-95
2023/07/31 04:44:48;;;;;;;5.38;2.92;;;;;;;;;;2041270;29;20043;-94
2023/07/31 05:26:16;;;;;;;3.95;1.70;;;;;;;;;;1981617;23;20046;-93
2023/07/31 05:27:18;;;;;;;3.90;1.90;;;;;;;;;;2041039;29;20043;-93
2023/07/31 05:28:18;;;;;;;3.25;2.13;;;;;;;;;;2042205;29;20080;-93
2023/07/31 05:29:19;;;;;;;2.67;1.98;;;;;;;;;;2038078;29;20028;-93
2023/07/31 05:30:21;;;;;;;5.00;1.77;;;;;;;;;;2033242;29;20016;-93
2023/07/31 05:31:22;;;;;;;2.85;1.77;;;;;;;;;;2035668;29;20024;-93
2023/07/31 05:32:22;;;;;;;4.22;2.35;;;;;;;;;;2032409;29;20152;-94
2023/07/31 05:33:23;;;;;;;3.33;2.20;;;;;;;;;;2032405;29;20043;-92
2023/07/31 05:34:23;;;;;;;5.75;2.67;;;;;;;;;;2032326;29;20028;-93
2023/07/31 05:35:24;;;;;;;3.40;2.45;;;;;;;;;;2032426;29;20016;-94
2023/07/31 05:36:24;;;;;;;5.50;3.33;;;;;;;;;;2032686;29;20519;-92
2023/07/31 05:37:25;;;;;;;8.07;3.72;;;;;;;;;;2024400;29;20579;-92
2023/07/31 05:38:28;;;;;;;4.18;3.13;;;;;;;;;;2024481;29;20032;-92
2023/07/31 05:39:28;;;;;;;4.93;3.50;;;;;;;;;;2033299;29;20102;-93
2023/07/31 05:40:32;;;;;;;3.85;3.50;;;;;;;;;;2032912;29;20055;-92
2023/07/31 05:41:33;;;;;;;5.88;3.33;;;;;;;;;;2033219;29;20516;-92
2023/07/31 05:42:34;;;;;;;5.75;3.80;;;;;;;;;;2032475;29;20024;-91
2023/07/31 05:43:34;;;;;;;4.30;3.13;;;;;;;;;;2032472;29;20080;-94
2023/07/31 05:44:35;;;;;;;3.95;3.45;;;;;;;;;;2032360;29;20111;-92
2023/07/31 05:45:36;;;;;;;4.43;3.65;;;;;;;;;;2040886;29;20531;-94
2023/07/31 05:46:37;;;;;;;5.57;3.35;;;;;;;;;;2041087;29;20038;-92
2023/07/31 05:47:41;;;;;;;6.95;3.88;;;;;;;;;;2041144;29;20104;-94
2023/07/31 05:48:42;;;;;;;5.85;3.50;;;;;;;;;;2040213;29;20027;-94
2023/07/31 05:49:47;;;;;;;5.18;4.13;;;;;;;;;;2040464;29;20051;-93
2023/07/31 05:50:48;;;;;;;5.70;3.38;;;;;;;;;;2032587;29;20088;-94
2023/07/31 05:51:48;;;;;;;5.43;3.67;;;;;;;;;;2032633;29;20504;-94
2023/07/31 05:52:49;;;;;;;5.05;3.75;;;;;;;;;;2040882;29;20034;-93
2023/07/31 05:53:53;;;;;;;4.40;3.47;;;;;;;;;;2041064;29;20102;-93
2023/07/31 05:54:54;;;;;;;5.25;3.85;;;;;;;;;;2032990;29;20562;-93
2023/07/31 05:55:55;;;;;;;4.80;3.85;;;;;;;;;;2024867;29;20120;-95
2023/07/31 05:56:55;;;;;;;5.43;4.20;;;;;;;;;;2032195;29;20036;-94
2023/07/31 05:57:56;;;;;;;8.18;4.20;;;;;;;;;;2032494;29;20451;-92
2023/07/31 05:58:57;;;;;;;4.82;3.92;;;;;;;;;;2024610;29;20112;-93
2023/07/31 05:59:57;;;;;;;5.88;4.25;;;;;;;;;;2024733;29;20080;-95
2023/07/31 06:00:57;;;;;;;6.88;4.63;;;;;;;;;;2032469;29;20056;-96
2023/07/31 06:01:58;;;;;;;8.48;5.22;;;;;;;;;;2032514;29;20028;-94
2023/07/31 06:04:58;;;;;;;5.20;4.15;;;;;;;;;;2040114;29;20143;-94
2023/07/31 06:06:06;;;;;;;6.28;4.72;;;;;;;;;;2048547;29;20027;-95
2023/07/31 06:07:11;;;;;;;7.80;4.90;;;;;;;;;;2032740;29;20040;-96
2023/07/31 06:08:11;;;;;;;6.05;4.32;;;;;;;;;;2023509;29;20044;-93
2023/07/31 06:09:12;;;;;;;7.03;4.90;;;;;;;;;;2025014;29;20060;-94
2023/07/31 06:10:13;;;;;;;7.75;4.88;;;;;;;;;;2032543;29;20033;-94
2023/07/31 06:11:13;;;;;;;5.32;4.82;;;;;;;;;;2032572;29;20087;-96
2023/07/31 06:12:18;;;;;;;5.82;4.68;;;;;;;;;;2032486;29;20104;-95
2023/07/31 06:13:19;;;;;;;7.47;4.45;;;;;;;;;;2025588;29;20017;-95
2023/07/31 06:14:28;;;;;;;6.65;4.57;;;;;;;;;;2029459;29;20044;-94
2023/07/31 06:15:28;;;;;;;5.97;4.82;;;;;;;;;;2137018;23;20348;-93
2023/07/31 06:16:29;;;;;;;6.10;4.57;;;;;;;;;;2041910;29;20131;-92
2023/07/31 06:17:29;;;;;;;5.97;4.30;;;;;;;;;;2040306;29;20032;-93
2023/07/31 06:18:31;;;;;;;5.03;4.43;;;;;;;;;;2032190;29;20531;-93
2023/07/31 06:19:31;;;;;;;10.13;5.20;;;;;;;;;;2040117;29;20051;-93
2023/07/31 06:20:32;;;;;;;5.80;4.78;;;;;;;;;;2040343;29;20035;-93
2023/07/31 06:21:33;;;;;;;6.75;5.13;;;;;;;;;;2032339;29;20512;-96
2023/07/31 06:22:33;;;;;;;5.75;4.70;;;;;;;;;;2032276;29;20134;-94
2023/07/31 06:23:34;;;;;;;7.95;5.28;;;;;;;;;;2041577;29;20102;-94
2023/07/31 06:24:34;;;;;;;7.47;5.82;;;;;;;;;;2043683;29;20032;-94
2023/07/31 06:25:35;;;;;;;7.65;6.15;;;;;;;;;;2041674;29;20031;-95
2023/07/31 06:26:36;;;;;;;9.10;6.03;;;;;;;;;;2042849;29;20035;-93
2023/07/31 06:27:36;;;;;;;8.60;6.00;;;;;;;;;;2050750;29;20031;-94
2023/07/31 06:28:37;;;;;;;12.63;7.78;;;;;;;;;;2043677;29;20059;-94
2023/07/31 06:29:37;;;;;;;11.75;7.40;;;;;;;;;;2044502;29;20522;-94
2023/07/31 06:30:38;;;;;;;9.43;6.57;;;;;;;;;;2050910;29;20035;-95
2023/07/31 06:31:38;;;;;;;8.77;5.93;;;;;;;;;;2042579;29;20038;-94
2023/07/31 06:32:40;;;;;;;10.73;6.22;;;;;;;;;;2038838;29;20159;-92
2023/07/31 06:33:40;;;;;;;9.60;7.03;;;;;;;;;;2047203;29;20087;-92
2023/07/31 06:34:41;;;;;;;9.63;6.30;;;;;;;;;;2045208;29;20143;-94
2023/07/31 06:35:41;;;;;;;9.57;5.88;;;;;;;;;;2035219;29;20473;-94
2023/07/31 06:36:42;;;;;;;9.30;5.95;;;;;;;;;;2043986;29;20034;-94
2023/07/31 06:37:44;;;;;;;7.10;5.75;;;;;;;;;;2058423;29;20164;-93
2023/07/31 06:38:44;;;;;;;9.70;5.97;;;;;;;;;;2051619;29;20094;-94
2023/07/31 06:39:44;;;;;;;10.68;6.63;;;;;;;;;;2051607;29;20083;-93
2023/07/31 06:40:45;;;;;;;11.50;6.47;;;;;;;;;;2044570;29;20122;-94
2023/07/31 06:41:46;;;;;;;13.95;10.15;;;;;;;;;;2042623;29;20032;-93
2023/07/31 06:42:46;;;;;;;8.45;6.25;;;;;;;;;;2042766;29;20145;-94
2023/07/31 06:43:47;;;;;;;7.80;5.93;;;;;;;;;;2034829;29;20032;-94
2023/07/31 06:44:48;;;;;;;9.57;6.88;;;;;;;;;;2042014;29;20050;-94
2023/07/31 06:45:51;;;;;;;9.27;6.20;;;;;;;;;;2042523;29;20549;-94
2023/07/31 06:46:51;;;;;;;7.63;6.20;;;;;;;;;;2041861;29;20043;-94
2023/07/31 06:47:51;;;;;;;9.18;7.10;;;;;;;;;;2041831;29;20078;-93
2023/07/31 06:48:52;;;;;;;7.20;5.53;;;;;;;;;;2033831;29;20035;-93
2023/07/31 06:49:52;;;;;;;15.38;7.35;;;;;;;;;;2033859;29;20232;-94
2023/07/31 06:50:53;;;;;;;8.68;6.60;;;;;;;;;;2034247;29;20115;-93
2023/07/31 06:51:53;;;;;;;6.35;5.65;;;;;;;;;;2041808;29;20158;-94
2023/07/31 06:52:54;;;;;;;9.40;6.97;;;;;;;;;;2040946;29;20035;-94
2023/07/31 06:53:57;;;;;;;8.50;6.43;;;;;;;;;;2041694;29;20038;-94
2023/07/31 06:55:17;;;;;;;9.23;6.03;;;;;;;;;;2041434;29;20032;-94
2023/07/31 06:56:18;;;;;;;8.20;6.82;;;;;;;;;;2041990;29;20024;-94
2023/07/31 06:57:18;;;;;;;7.50;5.82;;;;;;;;;;2042085;29;20043;-94
2023/07/31 06:58:19;;;;;;;9.23;6.32;;;;;;;;;;2041666;29;20062;-94
2023/07/31 06:59:20;;;;;;;12.05;6.38;;;;;;;;;;2041622;29;20023;-94
2023/07/31 07:00:22;;;;;;;9.68;6.18;;;;;;;;;;2041475;29;20122;-93
2023/07/31 07:01:23;;;;;;;9.13;6.22;;;;;;;;;;2040173;29;20039;-94
2023/07/31 07:02:23;;;;;;;9.55;6.78;;;;;;;;;;2050960;29;20062;-93
2023/07/31 07:03:25;;;;;;;8.02;6.18;;;;;;;;;;2041597;29;20139;-95
2023/07/31 07:04:26;;;;;;;9.00;5.85;;;;;;;;;;2033855;29;20028;-94
2023/07/31 07:05:27;;;;;;;10.18;6.63;;;;;;;;;;2041833;29;20094;-93
2023/07/31 07:06:27;;;;;;;9.38;6.85;;;;;;;;;;2041337;29;20078;-93
2023/07/31 07:07:28;;;;;;;11.15;6.28;;;;;;;;;;2034213;29;20032;-93
2023/07/31 07:11:17;;;;;;;10.95;6.72;;;;;;;;;;2040255;29;20046;-94
2023/07/31 07:12:17;;;;;;;11.73;6.95;;;;;;;;;;2033265;29;20028;-93
2023/07/31 07:13:21;;;;;;;8.32;6.50;;;;;;;;;;2025597;29;20031;-92
2023/07/31 07:14:21;;;;;;;10.90;6.82;;;;;;;;;;2033221;29;20111;-93
2023/07/31 07:15:22;;;;;;;14.13;7.72;;;;;;;;;;2033514;29;20040;-93
2023/07/31 07:16:22;;;;;;;12.75;7.32;;;;;;;;;;2042128;29;20030;-95
2023/07/31 07:17:23;;;;;;;9.60;7.70;;;;;;;;;;2033255;29;20511;-94
2023/07/31 07:18:24;;;;;;;9.73;6.32;;;;;;;;;;2026044;29;20104;-95
2023/07/31 07:19:25;;;;;;;9.65;6.57;;;;;;;;;;2025618;29;20029;-95
2023/07/31 07:20:25;;;;;;;8.85;6.53;;;;;;;;;;2033548;29;20032;-94
2023/07/31 07:21:25;;;;;;;9.32;7.28;;;;;;;;;;2033516;29;20023;-95
2023/07/31 07:22:27;;;;;;;9.18;7.40;;;;;;;;;;2033510;29;20524;-95
2023/07/31 07:23:27;;;;;;;9.70;6.85;;;;;;;;;;2042242;29;20477;-94
2023/07/31 07:24:29;;;;;;;11.32;6.93;;;;;;;;;;2033644;29;20032;-95
2023/07/31 07:25:29;;;;;;;8.52;6.07;;;;;;;;;;2031921;29;20069;-94
2023/07/31 07:26:30;;;;;;;7.70;6.75;;;;;;;;;;2042945;29;20020;-94
2023/07/31 07:27:30;;;;;;;9.20;8.02;;;;;;;;;;2041540;29;20043;-96
2023/07/31 07:28:31;;;;;;;8.73;7.32;;;;;;;;;;2042414;29;20027;-96
2023/07/31 07:29:31;;;;;;;9.18;8.13;;;;;;;;;;2038532;29;20067;-93
2023/07/31 07:30:32;;;;;;;10.65;8.68;;;;;;;;;;2034377;29;20150;-93
2023/07/31 07:31:32;;;;;;;10.27;8.30;;;;;;;;;;2026242;29;20029;-94
2023/07/31 07:32:32;;;;;;;9.65;7.97;;;;;;;;;;1673103;29;10433835;-94
2023/07/31 07:33:33;;;;;;;8.50;7.60;;;;;;;;;;2025781;29;20153;-94
2023/07/31 07:34:33;;;;;;;8.15;7.32;;;;;;;;;;2025613;29;20493;-94
2023/07/31 07:39:30;;;;;;;10.15;6.72;;;;;;;;;;2017789;29;20040;-93
2023/07/31 07:40:30;;;;;;;11.93;8.00;;;;;;;;;;2017433;29;20485;-93
2023/07/31 07:41:31;;;;;;;10.00;8.38;;;;;;;;;;2019644;29;20116;-93
2023/07/31 07:42:31;;;;;;;10.23;7.22;;;;;;;;;;2043533;29;20056;-93
2023/07/31 07:43:31;;;;;;;7.30;5.97;;;;;;;;;;2043414;29;20039;-93
2023/07/31 07:44:32;;;;;;;7.18;5.80;;;;;;;;;;2043157;29;20024;-93
2023/07/31 07:45:33;;;;;;;7.40;6.30;;;;;;;;;;2043448;29;20017;-92
2023/07/31 07:46:33;;;;;;;7.40;5.72;;;;;;;;;;2031923;29;20025;-92
2023/07/31 07:47:34;;;;;;;9.35;6.90;;;;;;;;;;2031608;29;20100;-90
2023/07/31 07:48:34;;;;;;;7.60;6.25;;;;;;;;;;2032858;29;20124;-90
2023/07/31 07:49:35;;;;;;;6.05;5.28;;;;;;;;;;2026226;29;20037;-93
2023/07/31 07:50:38;;;;;;;6.53;5.13;;;;;;;;;;2033576;29;20044;-93
2023/07/31 07:51:39;;;;;;;9.90;5.95;;;;;;;;;;2025759;29;20033;-95
2023/07/31 07:52:39;;;;;;;7.22;5.60;;;;;;;;;;2033143;29;20039;-92
2023/07/31 07:53:40;;;;;;;7.03;5.45;;;;;;;;;;2041715;29;20491;-92
2023/07/31 07:54:41;;;;;;;6.22;5.00;;;;;;;;;;2033238;29;20658;-92
2023/07/31 07:55:41;;;;;;;7.43;5.32;;;;;;;;;;2025236;29;20104;-94
2023/07/31 07:56:41;;;;;;;6.22;5.35;;;;;;;;;;2024967;29;20452;-92
2023/07/31 07:57:44;;;;;;;8.38;5.50;;;;;;;;;;2024925;29;20036;-94
2023/07/31 07:58:45;;;;;;;8.40;5.63;;;;;;;;;;2025353;29;20102;-93
2023/07/31 07:59:46;;;;;;;6.18;5.05;;;;;;;;;;2033153;29;20032;-93
2023/07/31 08:00:51;;;;;;;6.30;5.38;;;;;;;;;;2032780;29;20532;-92
2023/07/31 08:01:53;;;;;;;8.10;5.93;;;;;;;;;;2033593;29;20577;-93
2023/07/31 08:02:53;;;;;;;6.80;5.07;;;;;;;;;;1693634;29;10000661;-92
2023/07/31 08:03:54;;;;;;;11.03;6.53;;;;;;;;;;1678751;29;10255235;-92
2023/07/31 08:04:54;;;;;;;7.78;5.75;;;;;;;;;;2025120;29;20832;-92
2023/07/31 08:05:59;;;;;;;5.78;5.20;;;;;;;;;;2033076;29;20056;-93
2023/07/31 08:06:59;;;;;;;8.02;6.60;;;;;;;;;;2033231;29;20040;-93
2023/07/31 08:07:59;;;;;;;9.02;5.90;;;;;;;;;;2025386;29;20036;-93
2023/07/31 08:09:05;;;;;;;7.15;6.22;;;;;;;;;;2033127;29;20504;-94
2023/07/31 08:10:06;;;;;;;6.70;6.00;;;;;;;;;;2032907;29;20032;-93
2023/07/31 08:11:06;;;;;;;6.53;5.63;;;;;;;;;;2024930;29;20413;-93
2023/07/31 08:12:07;;;;;;;8.10;5.75;;;;;;;;;;2025025;29;20036;-94
2023/07/31 08:13:09;;;;;;;7.05;6.35;;;;;;;;;;2024984;29;20035;-94
2023/07/31 08:14:09;;;;;;;6.35;5.32;;;;;;;;;;2025150;29;20144;-93
2023/07/31 08:15:10;;;;;;;6.35;5.10;;;;;;;;;;2032591;29;20039;-93
2023/07/31 08:16:10;;;;;;;5.60;4.75;;;;;;;;;;2032735;29;20050;-93
2023/07/31 08:17:11;;;;;;;6.18;5.38;;;;;;;;;;2033023;29;20159;-93
2023/07/31 08:18:12;;;;;;;5.57;4.90;;;;;;;;;;2032705;29;20036;-94
2023/07/31 08:19:12;;;;;;;5.60;5.10;;;;;;;;;;2032947;29;20084;-93
2023/07/31 08:20:12;;;;;;;5.88;4.93;;;;;;;;;;2032881;29;20035;-93
2023/07/31 08:21:13;;;;;;;6.18;5.10;;;;;;;;;;2024900;29;20424;-94
2023/07/31 08:22:14;;;;;;;5.75;5.25;;;;;;;;;;2025053;29;20218;-93
2023/07/31 08:23:15;;;;;;;5.50;4.75;;;;;;;;;;2025172;29;20046;-94
2023/07/31 08:24:15;;;;;;;7.55;4.93;;;;;;;;;;2033133;29;20441;-93
2023/07/31 08:25:18;;;;;;;8.57;5.07;;;;;;;;;;2033341;29;20115;-93
2023/07/31 08:26:20;;;;;;;6.70;5.03;;;;;;;;;;2033189;29;20035;-92
2023/07/31 08:27:21;;;;;;;9.95;5.00;;;;;;;;;;2033224;29;20473;-93
2023/07/31 08:28:21;;;;;;;5.70;5.00;;;;;;;;;;2032972;29;20127;-94
2023/07/31 08:29:22;;;;;;;6.97;4.63;;;;;;;;;;2041653;29;20062;-94
2023/07/31 08:30:22;;;;;;;7.40;5.10;;;;;;;;;;2033008;29;20107;-94
2023/07/31 08:31:23;;;;;;;6.05;4.43;;;;;;;;;;2025221;29;20036;-94
2023/07/31 08:46:40;;;;;;;5.20;3.83;;;;;;;;;;2009994;29;20437;-94
2023/07/31 08:47:45;;;;;;;4.57;4.07;;;;;;;;;;2001877;29;20049;-95
2023/07/31 08:48:48;;;;;;;5.07;4.40;;;;;;;;;;2011348;29;20038;-96
2023/07/31 08:49:51;;;;;;;6.35;4.70;;;;;;;;;;2044195;29;20031;-95
2023/07/31 08:50:53;;;;;;;5.03;4.32;;;;;;;;;;2033013;29;20476;-95
2023/07/31 08:51:55;;;;;;;5.47;4.40;;;;;;;;;;2025289;29;20036;-95
2023/07/31 08:52:55;;;;;;;5.93;4.55;;;;;;;;;;2025309;29;20024;-95
2023/07/31 08:53:57;;;;;;;5.05;4.45;;;;;;;;;;2025099;29;20020;-95
2023/07/31 08:54:59;;;;;;;5.57;4.22;;;;;;;;;;2025267;29;20134;-95
2023/07/31 08:55:59;;;;;;;4.22;3.83;;;;;;;;;;2025220;29;20033;-95
2023/07/31 08:57:00;;;;;;;7.22;4.32;;;;;;;;;;2025231;29;20044;-95
2023/07/31 08:58:04;;;;;;;7.43;4.30;;;;;;;;;;2033361;29;20448;-95
2023/07/31 08:59:05;;;;;;;5.38;4.88;;;;;;;;;;2033098;29;20483;-96
2023/07/31 09:00:07;;;;;;;5.55;4.93;;;;;;;;;;2040442;29;20040;-96
2023/07/31 09:01:36;;;;;;;5.47;4.47;;;;;;;;;;2042149;29;20064;-96
2023/07/31 09:02:45;;;;;;;5.47;4.85;;;;;;;;;;2038488;29;20035;-96
2023/07/31 09:03:47;;;;;;;6.50;4.80;;;;;;;;;;2034962;29;20028;-96
2023/07/31 09:04:48;;;;;;;7.05;4.68;;;;;;;;;;2025509;29;20788;-96
2023/07/31 09:05:53;;;;;;;5.57;5.07;;;;;;;;;;2025272;29;20110;-96
2023/07/31 09:07:13;;;;;;;5.47;4.97;;;;;;;;;;2025973;29;20413;-96
2023/07/31 09:08:17;;;;;;;6.80;4.82;;;;;;;;;;2028542;29;20016;-96
2023/07/31 09:09:20;;;;;;;6.20;4.63;;;;;;;;;;2026089;29;20081;-96
2023/07/31 09:10:21;;;;;;;6.78;4.97;;;;;;;;;;2034195;29;20028;-96
2023/07/31 09:11:22;;;;;;;5.43;4.65;;;;;;;;;;2034330;29;20016;-96